Terminal Aerodrome Forecast
Issued by NWS Bismarck, ND

Home | Current Version | Previous Version | Graphics & Text | Print | Product List | Glossary On
Versions: 1 2 3 4 5 6 7 8 9 10 11 12 13 14 15 16 17 18 19 20 21 22 23 24 25
830
FTUS43 KBIS 202335
TAFBIS
TAF
KBIS 202335Z 2100/2124 VRB03KT 2SM -DZ BR OVC007
     FM210300 VRB03KT 1/2SM FZFG OVC003
     FM211800 36005KT 1SM BR OVC003
     FM212100 34005KT 6SM BR OVC008=

USA.gov is the U.S. government's official web portal to all federal, state and local government web resources and services.